sensor_id;sensor_type;location;lat;lon;timestamp;temperature;humidity
21267;DHT22;10791;53.108;18.326;2023-04-24T00:04:18;12.80;99.90
21267;DHT22;10791;53.108;18.326;2023-04-24T00:09:21;12.70;99.90
21267;DHT22;10791;53.108;18.326;2023-04-24T00:14:25;12.70;99.90
21267;DHT22;10791;53.108;18.326;2023-04-24T00:19:28;12.70;99.90
21267;DHT22;10791;53.108;18.326;2023-04-24T00:24:31;12.60;99.90
21267;DHT22;10791;53.108;18.326;2023-04-24T00:29:35;12.60;99.90
21267;DHT22;10791;53.108;18.326;2023-04-24T00:34:38;12.60;99.90
21267;DHT22;10791;53.108;18.326;2023-04-24T00:39:42;12.60;99.90
21267;DHT22;10791;53.108;18.326;2023-04-24T00:44:46;12.60;99.90
21267;DHT22;10791;53.108;18.326;2023-04-24T00:49:49;12.60;99.90
21267;DHT22;10791;53.108;18.326;2023-04-24T00:54:53;12.50;99.90
21267;DHT22;10791;53.108;18.326;2023-04-24T00:59:56;12.40;99.90
21267;DHT22;10791;53.108;18.326;2023-04-24T01:05:00;12.40;99.90
21267;DHT22;10791;53.108;18.326;2023-04-24T01:10:05;12.50;99.90
21267;DHT22;10791;53.108;18.326;2023-04-24T01:15:09;12.50;99.90
21267;DHT22;10791;53.108;18.326;2023-04-24T01:20:13;12.50;99.90
21267;DHT22;10791;53.108;18.326;2023-04-24T01:25:17;12.50;99.90
21267;DHT22;10791;53.108;18.326;2023-04-24T01:30:21;12.50;99.90
21267;DHT22;10791;53.108;18.326;2023-04-24T01:35:24;12.50;99.90
21267;DHT22;10791;53.108;18.326;2023-04-24T01:40:28;12.50;99.90
21267;DHT22;10791;53.108;18.326;2023-04-24T01:45:31;12.50;99.90
21267;DHT22;10791;53.108;18.326;2023-04-24T01:50:35;12.60;99.90
21267;DHT22;10791;53.108;18.326;2023-04-24T01:55:38;12.50;99.90
21267;DHT22;10791;53.108;18.326;2023-04-24T02:00:42;12.60;99.90
21267;DHT22;10791;53.108;18.326;2023-04-24T02:05:45;12.50;99.90
21267;DHT22;10791;53.108;18.326;2023-04-24T02:10:48;12.50;99.90
21267;DHT22;10791;53.108;18.326;2023-04-24T02:15:52;12.50;99.90
21267;DHT22;10791;53.108;18.326;2023-04-24T02:20:55;12.50;99.90
21267;DHT22;10791;53.108;18.326;2023-04-24T02:25:58;12.50;99.90
21267;DHT22;10791;53.108;18.326;2023-04-24T02:31:01;12.50;99.90
21267;DHT22;10791;53.108;18.326;2023-04-24T02:36:05;12.50;99.90
21267;DHT22;10791;53.108;18.326;2023-04-24T02:41:08;12.40;99.90
21267;DHT22;10791;53.108;18.326;2023-04-24T02:46:11;12.40;99.90
21267;DHT22;10791;53.108;18.326;2023-04-24T02:51:15;12.40;99.90
21267;DHT22;10791;53.108;18.326;2023-04-24T02:56:18;12.30;99.90
21267;DHT22;10791;53.108;18.326;2023-04-24T03:01:21;12.20;99.90
21267;DHT22;10791;53.108;18.326;2023-04-24T03:06:24;12.10;99.90
21267;DHT22;10791;53.108;18.326;2023-04-24T03:11:29;12.20;99.90
21267;DHT22;10791;53.108;18.326;2023-04-24T03:16:33;12.30;99.90
21267;DHT22;10791;53.108;18.326;2023-04-24T03:21:36;12.30;99.90
21267;DHT22;10791;53.108;18.326;2023-04-24T03:26:43;12.30;99.90
21267;DHT22;10791;53.108;18.326;2023-04-24T03:31:47;12.40;99.90
21267;DHT22;10791;53.108;18.326;2023-04-24T03:36:50;12.40;99.90
21267;DHT22;10791;53.108;18.326;2023-04-24T03:41:53;12.40;99.90
21267;DHT22;10791;53.108;18.326;2023-04-24T03:46:58;12.40;99.90
21267;DHT22;10791;53.108;18.326;2023-04-24T03:52:01;12.40;99.90
21267;DHT22;10791;53.108;18.326;2023-04-24T03:57:04;12.40;99.90
21267;DHT22;10791;53.108;18.326;2023-04-24T04:02:08;12.50;99.90
21267;DHT22;10791;53.108;18.326;2023-04-24T04:07:12;12.50;99.90
21267;DHT22;10791;53.108;18.326;2023-04-24T04:12:16;12.50;99.90
21267;DHT22;10791;53.108;18.326;2023-04-24T04:17:19;12.50;99.90
21267;DHT22;10791;53.108;18.326;2023-04-24T04:22:22;12.60;99.90
21267;DHT22;10791;53.108;18.326;2023-04-24T04:27:26;12.40;99.90
21267;DHT22;10791;53.108;18.326;2023-04-24T04:32:29;12.50;99.90
21267;DHT22;10791;53.108;18.326;2023-04-24T04:37:33;12.50;99.90
21267;DHT22;10791;53.108;18.326;2023-04-24T04:42:37;12.70;99.90
21267;DHT22;10791;53.108;18.326;2023-04-24T04:47:43;12.70;99.90
21267;DHT22;10791;53.108;18.326;2023-04-24T04:52:47;12.60;99.90
21267;DHT22;10791;53.108;18.326;2023-04-24T04:57:51;12.60;99.90
21267;DHT22;10791;53.108;18.326;2023-04-24T05:02:54;12.60;99.90
21267;DHT22;10791;53.108;18.326;2023-04-24T05:08:10;12.60;99.90
21267;DHT22;10791;53.108;18.326;2023-04-24T05:13:28;12.70;99.90
21267;DHT22;10791;53.108;18.326;2023-04-24T05:18:42;12.80;99.90
21267;DHT22;10791;53.108;18.326;2023-04-24T05:23:46;12.90;99.90
21267;DHT22;10791;53.108;18.326;2023-04-24T05:28:49;12.90;99.90
21267;DHT22;10791;53.108;18.326;2023-04-24T05:33:52;12.90;99.90
21267;DHT22;10791;53.108;18.326;2023-04-24T05:38:56;13.10;99.90
21267;DHT22;10791;53.108;18.326;2023-04-24T05:43:59;13.20;99.90
21267;DHT22;10791;53.108;18.326;2023-04-24T05:49:03;13.20;99.90
21267;DHT22;10791;53.108;18.326;2023-04-24T05:54:06;13.20;99.90
21267;DHT22;10791;53.108;18.326;2023-04-24T05:59:10;13.20;99.90
21267;DHT22;10791;53.108;18.326;2023-04-24T06:04:13;13.50;99.90
21267;DHT22;10791;53.108;18.326;2023-04-24T06:09:17;13.80;99.90
21267;DHT22;10791;53.108;18.326;2023-04-24T06:14:20;14.20;99.90
21267;DHT22;10791;53.108;18.326;2023-04-24T06:19:24;14.50;99.90
21267;DHT22;10791;53.108;18.326;2023-04-24T06:24:28;14.70;99.90
21267;DHT22;10791;53.108;18.326;2023-04-24T06:29:32;14.80;99.90
21267;DHT22;10791;53.108;18.326;2023-04-24T06:34:36;14.90;99.90
21267;DHT22;10791;53.108;18.326;2023-04-24T06:39:39;15.00;99.90
21267;DHT22;10791;53.108;18.326;2023-04-24T06:44:43;15.20;99.90
21267;DHT22;10791;53.108;18.326;2023-04-24T06:49:47;15.30;99.90
21267;DHT22;10791;53.108;18.326;2023-04-24T06:54:50;15.50;99.90
21267;DHT22;10791;53.108;18.326;2023-04-24T06:59:53;15.50;99.90
21267;DHT22;10791;53.108;18.326;2023-04-24T07:04:56;15.50;99.90
21267;DHT22;10791;53.108;18.326;2023-04-24T07:10:00;15.40;99.90
21267;DHT22;10791;53.108;18.326;2023-04-24T07:15:04;15.50;99.90
21267;DHT22;10791;53.108;18.326;2023-04-24T07:20:08;15.60;99.90
21267;DHT22;10791;53.108;18.326;2023-04-24T07:25:13;15.80;99.90
21267;DHT22;10791;53.108;18.326;2023-04-24T07:30:16;16.00;99.90
21267;DHT22;10791;53.108;18.326;2023-04-24T07:35:20;16.20;99.90
21267;DHT22;10791;53.108;18.326;2023-04-24T07:40:23;16.40;99.90
21267;DHT22;10791;53.108;18.326;2023-04-24T07:45:26;16.40;99.90
21267;DHT22;10791;53.108;18.326;2023-04-24T07:50:31;16.40;99.90
21267;DHT22;10791;53.108;18.326;2023-04-24T07:55:34;16.40;99.90
21267;DHT22;10791;53.108;18.326;2023-04-24T08:00:38;16.50;99.90
21267;DHT22;10791;53.108;18.326;2023-04-24T08:05:41;16.50;99.90
21267;DHT22;10791;53.108;18.326;2023-04-24T08:10:45;16.50;99.90
21267;DHT22;10791;53.108;18.326;2023-04-24T08:15:49;16.40;99.90
21267;DHT22;10791;53.108;18.326;2023-04-24T08:20:52;16.40;99.90
21267;DHT22;10791;53.108;18.326;2023-04-24T08:25:55;16.40;99.90
21267;DHT22;10791;53.108;18.326;2023-04-24T08:31:05;16.50;99.90
21267;DHT22;10791;53.108;18.326;2023-04-24T08:36:08;16.60;99.90
21267;DHT22;10791;53.108;18.326;2023-04-24T08:41:14;16.70;99.90
21267;DHT22;10791;53.108;18.326;2023-04-24T08:46:20;16.80;99.90
21267;DHT22;10791;53.108;18.326;2023-04-24T08:51:24;16.80;99.90
21267;DHT22;10791;53.108;18.326;2023-04-24T08:56:30;16.80;99.90
21267;DHT22;10791;53.108;18.326;2023-04-24T09:01:37;17.20;99.90
21267;DHT22;10791;53.108;18.326;2023-04-24T09:06:43;17.40;99.90
21267;DHT22;10791;53.108;18.326;2023-04-24T09:11:46;17.60;99.90
21267;DHT22;10791;53.108;18.326;2023-04-24T09:16:52;17.50;99.90
21267;DHT22;10791;53.108;18.326;2023-04-24T09:21:56;17.50;99.90
21267;DHT22;10791;53.108;18.326;2023-04-24T09:26:59;17.50;99.90
21267;DHT22;10791;53.108;18.326;2023-04-24T09:32:20;17.60;99.90
21267;DHT22;10791;53.108;18.326;2023-04-24T09:37:29;17.50;99.90
21267;DHT22;10791;53.108;18.326;2023-04-24T09:42:33;17.50;99.90
21267;DHT22;10791;53.108;18.326;2023-04-24T09:47:40;17.50;99.90
21267;DHT22;10791;53.108;18.326;2023-04-24T09:52:55;17.50;99.90
21267;DHT22;10791;53.108;18.326;2023-04-24T09:58:00;17.70;99.90
21267;DHT22;10791;53.108;18.326;2023-04-24T10:03:05;17.90;99.90
21267;DHT22;10791;53.108;18.326;2023-04-24T10:08:11;17.90;99.90
21267;DHT22;10791;53.108;18.326;2023-04-24T10:13:15;18.00;99.90
21267;DHT22;10791;53.108;18.326;2023-04-24T10:18:20;18.10;99.90
21267;DHT22;10791;53.108;18.326;2023-04-24T10:23:25;18.30;99.90
21267;DHT22;10791;53.108;18.326;2023-04-24T10:28:30;18.40;99.90
21267;DHT22;10791;53.108;18.326;2023-04-24T10:33:35;18.30;99.90
21267;DHT22;10791;53.108;18.326;2023-04-24T10:38:40;18.40;99.90
21267;DHT22;10791;53.108;18.326;2023-04-24T10:43:45;18.40;99.90
21267;DHT22;10791;53.108;18.326;2023-04-24T10:48:53;18.50;99.90
21267;DHT22;10791;53.108;18.326;2023-04-24T10:53:57;18.60;99.90
21267;DHT22;10791;53.108;18.326;2023-04-24T10:59:01;18.90;99.90
21267;DHT22;10791;53.108;18.326;2023-04-24T11:04:05;19.00;99.90
21267;DHT22;10791;53.108;18.326;2023-04-24T11:09:10;19.10;99.90
21267;DHT22;10791;53.108;18.326;2023-04-24T11:14:16;19.30;99.90
21267;DHT22;10791;53.108;18.326;2023-04-24T11:19:22;19.50;99.90
21267;DHT22;10791;53.108;18.326;2023-04-24T11:24:39;19.60;99.90
21267;DHT22;10791;53.108;18.326;2023-04-24T11:35:14;19.70;99.40
21267;DHT22;10791;53.108;18.326;2023-04-24T11:40:19;19.80;98.10
21267;DHT22;10791;53.108;18.326;2023-04-24T11:45:28;20.00;96.80
21267;DHT22;10791;53.108;18.326;2023-04-24T11:50:31;20.00;97.10
21267;DHT22;10791;53.108;18.326;2023-04-24T11:55:34;20.20;96.50
21267;DHT22;10791;53.108;18.326;2023-04-24T12:00:38;20.20;96.00
21267;DHT22;10791;53.108;18.326;2023-04-24T12:05:41;20.10;94.90
21267;DHT22;10791;53.108;18.326;2023-04-24T12:10:51;20.30;95.20
21267;DHT22;10791;53.108;18.326;2023-04-24T12:15:54;20.70;95.80
21267;DHT22;10791;53.108;18.326;2023-04-24T12:21:20;20.70;93.40
21267;DHT22;10791;53.108;18.326;2023-04-24T12:26:24;20.60;94.40
21267;DHT22;10791;53.108;18.326;2023-04-24T12:31:28;20.30;94.90
21267;DHT22;10791;53.108;18.326;2023-04-24T12:36:35;20.20;94.50
21267;DHT22;10791;53.108;18.326;2023-04-24T12:41:55;20.10;95.70
21267;DHT22;10791;53.108;18.326;2023-04-24T12:47:01;20.00;95.50
21267;DHT22;10791;53.108;18.326;2023-04-24T12:52:04;19.90;96.50
21267;DHT22;10791;53.108;18.326;2023-04-24T12:57:07;19.80;96.30
21267;DHT22;10791;53.108;18.326;2023-04-24T13:02:11;19.80;96.30
21267;DHT22;10791;53.108;18.326;2023-04-24T13:07:14;19.80;96.20
21267;DHT22;10791;53.108;18.326;2023-04-24T13:12:18;19.90;95.70
21267;DHT22;10791;53.108;18.326;2023-04-24T13:17:23;19.80;94.80
21267;DHT22;10791;53.108;18.326;2023-04-24T13:22:26;19.80;94.60
21267;DHT22;10791;53.108;18.326;2023-04-24T13:27:30;19.60;94.00
21267;DHT22;10791;53.108;18.326;2023-04-24T13:32:33;19.40;94.40
21267;DHT22;10791;53.108;18.326;2023-04-24T13:37:38;19.10;96.50
21267;DHT22;10791;53.108;18.326;2023-04-24T13:42:41;18.80;96.10
21267;DHT22;10791;53.108;18.326;2023-04-24T13:47:45;18.60;96.40
21267;DHT22;10791;53.108;18.326;2023-04-24T13:52:48;18.40;96.70
21267;DHT22;10791;53.108;18.326;2023-04-24T13:57:52;18.40;97.90
21267;DHT22;10791;53.108;18.326;2023-04-24T14:02:57;18.30;98.60
21267;DHT22;10791;53.108;18.326;2023-04-24T14:08:01;18.30;99.90
21267;DHT22;10791;53.108;18.326;2023-04-24T14:13:04;18.40;99.90
21267;DHT22;10791;53.108;18.326;2023-04-24T14:18:08;18.60;99.90
21267;DHT22;10791;53.108;18.326;2023-04-24T14:23:11;18.80;99.90
21267;DHT22;10791;53.108;18.326;2023-04-24T14:28:15;19.30;99.90
21267;DHT22;10791;53.108;18.326;2023-04-24T14:33:24;19.70;99.90
21267;DHT22;10791;53.108;18.326;2023-04-24T14:38:27;19.80;99.50
21267;DHT22;10791;53.108;18.326;2023-04-24T14:43:30;20.10;99.40
21267;DHT22;10791;53.108;18.326;2023-04-24T14:48:34;21.00;98.20
21267;DHT22;10791;53.108;18.326;2023-04-24T14:53:38;22.00;94.80
21267;DHT22;10791;53.108;18.326;2023-04-24T14:58:41;22.30;90.60
21267;DHT22;10791;53.108;18.326;2023-04-24T15:03:45;22.30;88.20
21267;DHT22;10791;53.108;18.326;2023-04-24T15:08:56;22.60;84.50
21267;DHT22;10791;53.108;18.326;2023-04-24T15:13:59;22.40;86.50
21267;DHT22;10791;53.108;18.326;2023-04-24T15:19:03;22.00;87.90
21267;DHT22;10791;53.108;18.326;2023-04-24T15:24:06;21.70;87.50
21267;DHT22;10791;53.108;18.326;2023-04-24T15:29:09;21.40;89.40
21267;DHT22;10791;53.108;18.326;2023-04-24T15:34:12;21.70;89.80
21267;DHT22;10791;53.108;18.326;2023-04-24T15:39:16;21.80;90.00
21267;DHT22;10791;53.108;18.326;2023-04-24T15:44:20;21.60;88.80
21267;DHT22;10791;53.108;18.326;2023-04-24T15:49:24;21.20;90.40
21267;DHT22;10791;53.108;18.326;2023-04-24T15:54:28;21.00;90.50
21267;DHT22;10791;53.108;18.326;2023-04-24T15:59:32;20.90;90.40
21267;DHT22;10791;53.108;18.326;2023-04-24T16:04:35;21.40;90.70
21267;DHT22;10791;53.108;18.326;2023-04-24T16:09:39;22.40;87.60
21267;DHT22;10791;53.108;18.326;2023-04-24T16:14:43;22.50;85.80
21267;DHT22;10791;53.108;18.326;2023-04-24T16:19:47;22.60;85.90
21267;DHT22;10791;53.108;18.326;2023-04-24T16:24:50;22.00;86.30
21267;DHT22;10791;53.108;18.326;2023-04-24T16:29:54;21.10;89.80
21267;DHT22;10791;53.108;18.326;2023-04-24T16:34:58;20.40;90.30
21267;DHT22;10791;53.108;18.326;2023-04-24T16:40:02;19.90;90.80
21267;DHT22;10791;53.108;18.326;2023-04-24T16:45:08;19.50;92.00
21267;DHT22;10791;53.108;18.326;2023-04-24T16:50:12;19.30;93.00
21267;DHT22;10791;53.108;18.326;2023-04-24T16:55:16;19.00;93.70
21267;DHT22;10791;53.108;18.326;2023-04-24T17:00:20;18.70;94.10
21267;DHT22;10791;53.108;18.326;2023-04-24T17:05:24;18.40;93.80
21267;DHT22;10791;53.108;18.326;2023-04-24T17:10:28;18.10;96.20
21267;DHT22;10791;53.108;18.326;2023-04-24T17:15:32;17.60;96.80
21267;DHT22;10791;53.108;18.326;2023-04-24T17:20:41;17.10;97.50
21267;DHT22;10791;53.108;18.326;2023-04-24T17:25:46;16.70;99.90
21267;DHT22;10791;53.108;18.326;2023-04-24T17:30:54;16.40;99.90
21267;DHT22;10791;53.108;18.326;2023-04-24T17:36:02;16.10;99.90
21267;DHT22;10791;53.108;18.326;2023-04-24T17:41:12;15.80;99.90
21267;DHT22;10791;53.108;18.326;2023-04-24T17:46:20;15.50;99.90
21267;DHT22;10791;53.108;18.326;2023-04-24T17:51:25;15.30;99.90
21267;DHT22;10791;53.108;18.326;2023-04-24T17:56:30;15.20;99.90
21267;DHT22;10791;53.108;18.326;2023-04-24T18:01:34;15.20;99.90
21267;DHT22;10791;53.108;18.326;2023-04-24T18:06:39;15.10;99.90
21267;DHT22;10791;53.108;18.326;2023-04-24T18:11:45;15.10;99.90
21267;DHT22;10791;53.108;18.326;2023-04-24T18:16:51;15.00;99.90
21267;DHT22;10791;53.108;18.326;2023-04-24T18:22:00;15.00;99.90
21267;DHT22;10791;53.108;18.326;2023-04-24T18:27:05;15.00;99.90
21267;DHT22;10791;53.108;18.326;2023-04-24T18:32:11;14.90;99.90
21267;DHT22;10791;53.108;18.326;2023-04-24T18:37:15;15.00;99.90
21267;DHT22;10791;53.108;18.326;2023-04-24T18:42:21;14.90;99.90
21267;DHT22;10791;53.108;18.326;2023-04-24T18:47:31;14.80;99.90
21267;DHT22;10791;53.108;18.326;2023-04-24T18:52:37;14.70;99.90
21267;DHT22;10791;53.108;18.326;2023-04-24T18:57:42;14.70;99.90
21267;DHT22;10791;53.108;18.326;2023-04-24T19:02:47;14.60;99.90
21267;DHT22;10791;53.108;18.326;2023-04-24T19:07:53;14.40;99.90
21267;DHT22;10791;53.108;18.326;2023-04-24T19:13:00;14.20;99.90
21267;DHT22;10791;53.108;18.326;2023-04-24T19:18:05;14.20;99.90
21267;DHT22;10791;53.108;18.326;2023-04-24T19:23:10;14.20;99.90
21267;DHT22;10791;53.108;18.326;2023-04-24T19:28:14;14.10;99.90
21267;DHT22;10791;53.108;18.326;2023-04-24T19:33:23;14.10;99.90
21267;DHT22;10791;53.108;18.326;2023-04-24T19:38:31;14.00;99.90
21267;DHT22;10791;53.108;18.326;2023-04-24T19:43:40;13.90;99.90
21267;DHT22;10791;53.108;18.326;2023-04-24T19:48:46;13.90;99.90
21267;DHT22;10791;53.108;18.326;2023-04-24T19:53:53;13.80;99.90
21267;DHT22;10791;53.108;18.326;2023-04-24T19:58:59;13.80;99.90
21267;DHT22;10791;53.108;18.326;2023-04-24T20:04:06;13.70;99.90
21267;DHT22;10791;53.108;18.326;2023-04-24T20:09:13;13.60;99.90
21267;DHT22;10791;53.108;18.326;2023-04-24T20:14:20;13.50;99.90
21267;DHT22;10791;53.108;18.326;2023-04-24T20:19:25;13.40;99.90
21267;DHT22;10791;53.108;18.326;2023-04-24T20:24:29;13.40;99.90
21267;DHT22;10791;53.108;18.326;2023-04-24T20:29:33;13.40;99.90
21267;DHT22;10791;53.108;18.326;2023-04-24T20:34:38;13.30;99.90
21267;DHT22;10791;53.108;18.326;2023-04-24T20:39:43;13.40;99.90
21267;DHT22;10791;53.108;18.326;2023-04-24T20:44:47;13.30;99.90
21267;DHT22;10791;53.108;18.326;2023-04-24T20:49:51;13.30;99.90
21267;DHT22;10791;53.108;18.326;2023-04-24T20:54:54;13.20;99.90
21267;DHT22;10791;53.108;18.326;2023-04-24T20:59:57;13.20;99.90
21267;DHT22;10791;53.108;18.326;2023-04-24T21:05:00;13.20;99.90
21267;DHT22;10791;53.108;18.326;2023-04-24T21:10:04;13.10;99.90
21267;DHT22;10791;53.108;18.326;2023-04-24T21:15:08;13.10;99.90
21267;DHT22;10791;53.108;18.326;2023-04-24T21:20:12;13.10;99.90
21267;DHT22;10791;53.108;18.326;2023-04-24T21:25:15;13.00;99.90
21267;DHT22;10791;53.108;18.326;2023-04-24T21:30:20;13.00;99.90
21267;DHT22;10791;53.108;18.326;2023-04-24T21:35:24;12.90;99.90
21267;DHT22;10791;53.108;18.326;2023-04-24T21:40:27;12.90;99.90
21267;DHT22;10791;53.108;18.326;2023-04-24T21:45:30;12.90;99.90
21267;DHT22;10791;53.108;18.326;2023-04-24T21:50:33;12.90;99.90
21267;DHT22;10791;53.108;18.326;2023-04-24T21:55:37;12.90;99.90
21267;DHT22;10791;53.108;18.326;2023-04-24T22:00:40;12.90;99.90
21267;DHT22;10791;53.108;18.326;2023-04-24T22:05:43;12.90;99.90
21267;DHT22;10791;53.108;18.326;2023-04-24T22:10:47;12.90;99.90
21267;DHT22;10791;53.108;18.326;2023-04-24T22:15:50;12.80;99.90
21267;DHT22;10791;53.108;18.326;2023-04-24T22:20:53;12.80;99.90
21267;DHT22;10791;53.108;18.326;2023-04-24T22:25:57;12.80;99.90
21267;DHT22;10791;53.108;18.326;2023-04-24T22:31:00;12.80;99.90
21267;DHT22;10791;53.108;18.326;2023-04-24T22:36:04;12.70;99.90
21267;DHT22;10791;53.108;18.326;2023-04-24T22:41:07;12.60;99.90
21267;DHT22;10791;53.108;18.326;2023-04-24T22:46:11;12.70;99.90
21267;DHT22;10791;53.108;18.326;2023-04-24T22:51:14;12.60;99.90
21267;DHT22;10791;53.108;18.326;2023-04-24T22:56:18;12.60;99.90
21267;DHT22;10791;53.108;18.326;2023-04-24T23:01:21;12.60;99.90
21267;DHT22;10791;53.108;18.326;2023-04-24T23:06:25;12.50;99.90
21267;DHT22;10791;53.108;18.326;2023-04-24T23:11:29;12.50;99.90
21267;DHT22;10791;53.108;18.326;2023-04-24T23:16:32;12.40;99.90
21267;DHT22;10791;53.108;18.326;2023-04-24T23:21:39;12.40;99.90
21267;DHT22;10791;53.108;18.326;2023-04-24T23:26:43;12.40;99.90
21267;DHT22;10791;53.108;18.326;2023-04-24T23:31:47;12.40;99.90
21267;DHT22;10791;53.108;18.326;2023-04-24T23:36:51;12.40;99.90
21267;DHT22;10791;53.108;18.326;2023-04-24T23:41:55;12.30;99.90
21267;DHT22;10791;53.108;18.326;2023-04-24T23:46:58;12.30;99.90
21267;DHT22;10791;53.108;18.326;2023-04-24T23:52:02;12.20;99.90
21267;DHT22;10791;53.108;18.326;2023-04-24T23:57:05;12.20;99.90
